sensor_id;sensor_type;location;lat;lon;timestamp;P1;durP1;ratioP1;P2;durP2;ratioP2
62580;SDS011;48640;48.770;9.148;2023-02-01T00:00:15;5.13;;;3.17;;
62580;SDS011;48640;48.770;9.148;2023-02-01T00:02:42;7.30;;;3.83;;
62580;SDS011;48640;48.770;9.148;2023-02-01T00:05:09;3.70;;;2.60;;
62580;SDS011;48640;48.770;9.148;2023-02-01T00:07:37;4.80;;;3.10;;
62580;SDS011;48640;48.770;9.148;2023-02-01T00:10:04;4.25;;;2.80;;
62580;SDS011;48640;48.770;9.148;2023-02-01T00:12:32;4.20;;;2.60;;
62580;SDS011;48640;48.770;9.148;2023-02-01T00:15:01;4.38;;;2.58;;
62580;SDS011;48640;48.770;9.148;2023-02-01T00:17:28;3.40;;;2.03;;
62580;SDS011;48640;48.770;9.148;2023-02-01T00:19:55;4.32;;;2.40;;
62580;SDS011;48640;48.770;9.148;2023-02-01T00:22:21;4.70;;;2.97;;
62580;SDS011;48640;48.770;9.148;2023-02-01T00:24:48;3.70;;;2.28;;
62580;SDS011;48640;48.770;9.148;2023-02-01T00:27:15;3.85;;;2.30;;
62580;SDS011;48640;48.770;9.148;2023-02-01T00:29:45;4.07;;;2.17;;
62580;SDS011;48640;48.770;9.148;2023-02-01T00:32:13;4.75;;;2.45;;
62580;SDS011;48640;48.770;9.148;2023-02-01T00:34:40;4.28;;;2.30;;
62580;SDS011;48640;48.770;9.148;2023-02-01T00:37:07;4.68;;;2.35;;
62580;SDS011;48640;48.770;9.148;2023-02-01T00:39:34;4.45;;;2.20;;
62580;SDS011;48640;48.770;9.148;2023-02-01T00:42:00;3.78;;;2.38;;
62580;SDS011;48640;48.770;9.148;2023-02-01T00:44:27;3.55;;;1.85;;
62580;SDS011;48640;48.770;9.148;2023-02-01T00:46:58;3.92;;;2.15;;
62580;SDS011;48640;48.770;9.148;2023-02-01T00:49:26;3.40;;;2.10;;
62580;SDS011;48640;48.770;9.148;2023-02-01T00:51:53;4.57;;;2.50;;
62580;SDS011;48640;48.770;9.148;2023-02-01T00:54:20;3.83;;;2.53;;
62580;SDS011;48640;48.770;9.148;2023-02-01T00:56:47;5.22;;;2.67;;
62580;SDS011;48640;48.770;9.148;2023-02-01T00:59:14;3.60;;;2.38;;
62580;SDS011;48640;48.770;9.148;2023-02-01T01:01:41;3.83;;;2.10;;
62580;SDS011;48640;48.770;9.148;2023-02-01T01:04:08;5.20;;;2.33;;
62580;SDS011;48640;48.770;9.148;2023-02-01T01:06:36;4.05;;;2.30;;
62580;SDS011;48640;48.770;9.148;2023-02-01T01:09:04;2.85;;;1.88;;
62580;SDS011;48640;48.770;9.148;2023-02-01T01:11:33;3.83;;;2.22;;
62580;SDS011;48640;48.770;9.148;2023-02-01T01:14:00;3.40;;;2.10;;
62580;SDS011;48640;48.770;9.148;2023-02-01T01:16:29;4.22;;;2.28;;
62580;SDS011;48640;48.770;9.148;2023-02-01T01:18:56;3.33;;;1.90;;
62580;SDS011;48640;48.770;9.148;2023-02-01T01:21:24;3.40;;;1.95;;
62580;SDS011;48640;48.770;9.148;2023-02-01T01:23:52;4.18;;;1.85;;
62580;SDS011;48640;48.770;9.148;2023-02-01T01:26:20;2.42;;;1.42;;
62580;SDS011;48640;48.770;9.148;2023-02-01T01:28:48;4.53;;;2.20;;
62580;SDS011;48640;48.770;9.148;2023-02-01T01:31:16;4.95;;;1.73;;
62580;SDS011;48640;48.770;9.148;2023-02-01T01:33:44;2.92;;;1.40;;
62580;SDS011;48640;48.770;9.148;2023-02-01T01:36:13;3.67;;;2.17;;
62580;SDS011;48640;48.770;9.148;2023-02-01T01:38:40;2.85;;;1.67;;
62580;SDS011;48640;48.770;9.148;2023-02-01T01:41:11;3.33;;;1.67;;
62580;SDS011;48640;48.770;9.148;2023-02-01T01:43:46;4.47;;;2.28;;
62580;SDS011;48640;48.770;9.148;2023-02-01T01:46:15;2.88;;;2.00;;
62580;SDS011;48640;48.770;9.148;2023-02-01T01:48:43;2.60;;;1.80;;
62580;SDS011;48640;48.770;9.148;2023-02-01T01:51:10;3.15;;;1.67;;
62580;SDS011;48640;48.770;9.148;2023-02-01T01:53:41;3.40;;;1.83;;
62580;SDS011;48640;48.770;9.148;2023-02-01T01:56:12;5.40;;;1.80;;
62580;SDS011;48640;48.770;9.148;2023-02-01T01:58:40;2.95;;;1.50;;
62580;SDS011;48640;48.770;9.148;2023-02-01T02:01:08;3.25;;;1.85;;
62580;SDS011;48640;48.770;9.148;2023-02-01T02:03:37;3.70;;;1.60;;
62580;SDS011;48640;48.770;9.148;2023-02-01T02:06:17;2.90;;;1.35;;
62580;SDS011;48640;48.770;9.148;2023-02-01T02:08:53;3.80;;;2.05;;
62580;SDS011;48640;48.770;9.148;2023-02-01T02:11:21;5.95;;;1.90;;
62580;SDS011;48640;48.770;9.148;2023-02-01T02:13:49;3.35;;;1.77;;
62580;SDS011;48640;48.770;9.148;2023-02-01T02:16:33;3.85;;;1.90;;
62580;SDS011;48640;48.770;9.148;2023-02-01T02:19:22;3.33;;;2.08;;
62580;SDS011;48640;48.770;9.148;2023-02-01T02:22:13;3.63;;;2.17;;
62580;SDS011;48640;48.770;9.148;2023-02-01T02:28:16;3.65;;;2.08;;
62580;SDS011;48640;48.770;9.148;2023-02-01T02:31:09;3.47;;;2.10;;
62580;SDS011;48640;48.770;9.148;2023-02-01T02:33:53;3.45;;;1.80;;
62580;SDS011;48640;48.770;9.148;2023-02-01T02:36:28;3.67;;;1.98;;
62580;SDS011;48640;48.770;9.148;2023-02-01T02:39:05;3.30;;;2.10;;
62580;SDS011;48640;48.770;9.148;2023-02-01T02:41:41;2.92;;;1.80;;
62580;SDS011;48640;48.770;9.148;2023-02-01T02:44:34;3.75;;;2.38;;
62580;SDS011;48640;48.770;9.148;2023-02-01T02:47:27;3.10;;;1.63;;
62580;SDS011;48640;48.770;9.148;2023-02-01T02:50:02;2.97;;;2.00;;
62580;SDS011;48640;48.770;9.148;2023-02-01T02:52:56;3.90;;;2.17;;
62580;SDS011;48640;48.770;9.148;2023-02-01T02:55:44;3.17;;;2.13;;
62580;SDS011;48640;48.770;9.148;2023-02-01T02:58:11;3.38;;;1.95;;
62580;SDS011;48640;48.770;9.148;2023-02-01T03:00:57;3.78;;;2.08;;
62580;SDS011;48640;48.770;9.148;2023-02-01T03:03:42;3.20;;;1.95;;
62580;SDS011;48640;48.770;9.148;2023-02-01T03:06:34;3.00;;;1.98;;
62580;SDS011;48640;48.770;9.148;2023-02-01T03:09:04;3.03;;;2.05;;
62580;SDS011;48640;48.770;9.148;2023-02-01T03:11:36;2.97;;;1.92;;
62580;SDS011;48640;48.770;9.148;2023-02-01T03:14:21;3.72;;;2.17;;
62580;SDS011;48640;48.770;9.148;2023-02-01T03:16:52;4.20;;;2.13;;
62580;SDS011;48640;48.770;9.148;2023-02-01T03:19:24;5.97;;;2.70;;
62580;SDS011;48640;48.770;9.148;2023-02-01T03:21:57;3.10;;;1.80;;
62580;SDS011;48640;48.770;9.148;2023-02-01T03:24:31;3.20;;;2.20;;
62580;SDS011;48640;48.770;9.148;2023-02-01T03:27:02;3.92;;;2.60;;
62580;SDS011;48640;48.770;9.148;2023-02-01T03:29:38;4.72;;;2.20;;
62580;SDS011;48640;48.770;9.148;2023-02-01T03:32:08;4.00;;;2.25;;
62580;SDS011;48640;48.770;9.148;2023-02-01T03:34:35;3.78;;;2.25;;
62580;SDS011;48640;48.770;9.148;2023-02-01T03:37:04;3.95;;;2.63;;
62580;SDS011;48640;48.770;9.148;2023-02-01T03:39:34;5.40;;;3.15;;
62580;SDS011;48640;48.770;9.148;2023-02-01T03:42:06;4.65;;;1.98;;
62580;SDS011;48640;48.770;9.148;2023-02-01T03:44:37;4.72;;;2.17;;
62580;SDS011;48640;48.770;9.148;2023-02-01T03:47:08;3.90;;;2.30;;
62580;SDS011;48640;48.770;9.148;2023-02-01T03:49:40;4.15;;;2.50;;
62580;SDS011;48640;48.770;9.148;2023-02-01T03:52:11;3.90;;;2.47;;
62580;SDS011;48640;48.770;9.148;2023-02-01T03:54:42;5.45;;;2.35;;
62580;SDS011;48640;48.770;9.148;2023-02-01T03:57:11;3.25;;;2.05;;
62580;SDS011;48640;48.770;9.148;2023-02-01T03:59:41;3.50;;;2.22;;
62580;SDS011;48640;48.770;9.148;2023-02-01T04:02:08;3.38;;;2.35;;
62580;SDS011;48640;48.770;9.148;2023-02-01T04:04:35;4.45;;;2.47;;
62580;SDS011;48640;48.770;9.148;2023-02-01T04:07:02;4.07;;;2.40;;
62580;SDS011;48640;48.770;9.148;2023-02-01T04:09:31;4.15;;;2.22;;
62580;SDS011;48640;48.770;9.148;2023-02-01T04:11:58;3.38;;;2.17;;
62580;SDS011;48640;48.770;9.148;2023-02-01T04:14:24;3.35;;;2.00;;
62580;SDS011;48640;48.770;9.148;2023-02-01T04:16:51;3.25;;;2.15;;
62580;SDS011;48640;48.770;9.148;2023-02-01T04:19:18;4.68;;;2.10;;
62580;SDS011;48640;48.770;9.148;2023-02-01T04:21:45;3.92;;;1.83;;
62580;SDS011;48640;48.770;9.148;2023-02-01T04:24:11;5.20;;;2.45;;
62580;SDS011;48640;48.770;9.148;2023-02-01T04:26:39;3.63;;;2.00;;
62580;SDS011;48640;48.770;9.148;2023-02-01T04:29:07;3.30;;;1.85;;
62580;SDS011;48640;48.770;9.148;2023-02-01T04:31:35;3.10;;;1.95;;
62580;SDS011;48640;48.770;9.148;2023-02-01T04:34:01;2.95;;;1.60;;
62580;SDS011;48640;48.770;9.148;2023-02-01T04:36:28;8.30;;;2.17;;
62580;SDS011;48640;48.770;9.148;2023-02-01T04:38:55;3.30;;;2.03;;
62580;SDS011;48640;48.770;9.148;2023-02-01T04:41:22;3.47;;;1.80;;
62580;SDS011;48640;48.770;9.148;2023-02-01T04:43:50;3.40;;;2.25;;
62580;SDS011;48640;48.770;9.148;2023-02-01T04:46:18;3.75;;;2.25;;
62580;SDS011;48640;48.770;9.148;2023-02-01T04:48:45;3.85;;;2.25;;
62580;SDS011;48640;48.770;9.148;2023-02-01T04:51:11;3.15;;;1.70;;
62580;SDS011;48640;48.770;9.148;2023-02-01T04:53:40;3.90;;;1.70;;
62580;SDS011;48640;48.770;9.148;2023-02-01T04:56:07;3.10;;;1.70;;
62580;SDS011;48640;48.770;9.148;2023-02-01T04:58:34;3.83;;;1.83;;
62580;SDS011;48640;48.770;9.148;2023-02-01T05:01:03;4.13;;;1.77;;
62580;SDS011;48640;48.770;9.148;2023-02-01T05:03:30;3.40;;;1.60;;
62580;SDS011;48640;48.770;9.148;2023-02-01T05:05:57;4.07;;;2.40;;
62580;SDS011;48640;48.770;9.148;2023-02-01T05:08:25;3.65;;;1.40;;
62580;SDS011;48640;48.770;9.148;2023-02-01T05:10:53;3.03;;;1.88;;
62580;SDS011;48640;48.770;9.148;2023-02-01T05:13:20;4.20;;;2.67;;
62580;SDS011;48640;48.770;9.148;2023-02-01T05:16:06;4.57;;;1.95;;
62580;SDS011;48640;48.770;9.148;2023-02-01T05:18:33;3.55;;;2.47;;
62580;SDS011;48640;48.770;9.148;2023-02-01T05:21:00;4.03;;;1.92;;
62580;SDS011;48640;48.770;9.148;2023-02-01T05:23:27;3.13;;;1.60;;
62580;SDS011;48640;48.770;9.148;2023-02-01T05:25:57;3.13;;;1.98;;
62580;SDS011;48640;48.770;9.148;2023-02-01T05:28:24;4.00;;;1.80;;
62580;SDS011;48640;48.770;9.148;2023-02-01T05:30:51;3.60;;;1.98;;
62580;SDS011;48640;48.770;9.148;2023-02-01T05:33:19;4.82;;;2.17;;
62580;SDS011;48640;48.770;9.148;2023-02-01T05:35:46;5.57;;;2.30;;
62580;SDS011;48640;48.770;9.148;2023-02-01T05:38:13;2.92;;;1.98;;
62580;SDS011;48640;48.770;9.148;2023-02-01T05:40:40;4.57;;;1.98;;
62580;SDS011;48640;48.770;9.148;2023-02-01T05:43:06;4.38;;;2.00;;
62580;SDS011;48640;48.770;9.148;2023-02-01T05:45:33;5.57;;;1.80;;
62580;SDS011;48640;48.770;9.148;2023-02-01T05:48:00;3.50;;;1.63;;
62580;SDS011;48640;48.770;9.148;2023-02-01T05:50:28;3.90;;;1.98;;
62580;SDS011;48640;48.770;9.148;2023-02-01T05:52:55;4.15;;;2.58;;
62580;SDS011;48640;48.770;9.148;2023-02-01T05:55:21;3.63;;;2.15;;
62580;SDS011;48640;48.770;9.148;2023-02-01T05:57:48;5.05;;;2.05;;
62580;SDS011;48640;48.770;9.148;2023-02-01T06:00:15;4.68;;;2.17;;
62580;SDS011;48640;48.770;9.148;2023-02-01T06:02:43;4.10;;;2.22;;
62580;SDS011;48640;48.770;9.148;2023-02-01T06:05:09;3.17;;;1.80;;
62580;SDS011;48640;48.770;9.148;2023-02-01T06:07:37;4.30;;;2.30;;
62580;SDS011;48640;48.770;9.148;2023-02-01T06:10:05;4.75;;;2.40;;
62580;SDS011;48640;48.770;9.148;2023-02-01T06:12:32;5.53;;;2.03;;
62580;SDS011;48640;48.770;9.148;2023-02-01T06:14:58;5.28;;;2.40;;
62580;SDS011;48640;48.770;9.148;2023-02-01T06:17:25;4.03;;;1.67;;
62580;SDS011;48640;48.770;9.148;2023-02-01T06:19:52;2.70;;;1.80;;
62580;SDS011;48640;48.770;9.148;2023-02-01T06:22:18;3.88;;;2.20;;
62580;SDS011;48640;48.770;9.148;2023-02-01T06:24:47;5.80;;;2.92;;
62580;SDS011;48640;48.770;9.148;2023-02-01T06:27:14;4.75;;;2.30;;
62580;SDS011;48640;48.770;9.148;2023-02-01T06:29:41;4.90;;;2.40;;
62580;SDS011;48640;48.770;9.148;2023-02-01T06:32:08;5.35;;;2.22;;
62580;SDS011;48640;48.770;9.148;2023-02-01T06:34:35;3.75;;;2.22;;
62580;SDS011;48640;48.770;9.148;2023-02-01T06:37:02;4.28;;;1.95;;
62580;SDS011;48640;48.770;9.148;2023-02-01T06:39:28;5.00;;;1.83;;
62580;SDS011;48640;48.770;9.148;2023-02-01T06:41:57;4.90;;;2.30;;
62580;SDS011;48640;48.770;9.148;2023-02-01T06:44:23;4.82;;;2.13;;
62580;SDS011;48640;48.770;9.148;2023-02-01T06:46:50;4.70;;;2.97;;
62580;SDS011;48640;48.770;9.148;2023-02-01T06:49:17;8.98;;;2.33;;
62580;SDS011;48640;48.770;9.148;2023-02-01T06:51:44;3.67;;;1.70;;
62580;SDS011;48640;48.770;9.148;2023-02-01T06:54:11;3.55;;;1.88;;
62580;SDS011;48640;48.770;9.148;2023-02-01T06:56:38;3.58;;;1.90;;
62580;SDS011;48640;48.770;9.148;2023-02-01T06:59:06;5.72;;;2.45;;
62580;SDS011;48640;48.770;9.148;2023-02-01T07:01:33;4.30;;;1.92;;
62580;SDS011;48640;48.770;9.148;2023-02-01T07:04:00;5.97;;;2.83;;
62580;SDS011;48640;48.770;9.148;2023-02-01T07:06:27;6.43;;;1.92;;
62580;SDS011;48640;48.770;9.148;2023-02-01T07:08:54;5.72;;;2.10;;
62580;SDS011;48640;48.770;9.148;2023-02-01T07:11:21;7.03;;;1.98;;
62580;SDS011;48640;48.770;9.148;2023-02-01T07:13:49;3.03;;;1.90;;
62580;SDS011;48640;48.770;9.148;2023-02-01T07:16:17;4.10;;;2.50;;
62580;SDS011;48640;48.770;9.148;2023-02-01T07:18:45;5.05;;;2.50;;
62580;SDS011;48640;48.770;9.148;2023-02-01T07:21:12;4.30;;;2.28;;
62580;SDS011;48640;48.770;9.148;2023-02-01T07:23:39;4.10;;;2.72;;
62580;SDS011;48640;48.770;9.148;2023-02-01T07:26:06;5.18;;;2.30;;
62580;SDS011;48640;48.770;9.148;2023-02-01T07:28:35;4.00;;;2.22;;
62580;SDS011;48640;48.770;9.148;2023-02-01T07:31:03;3.58;;;1.95;;
62580;SDS011;48640;48.770;9.148;2023-02-01T07:33:31;4.65;;;2.40;;
62580;SDS011;48640;48.770;9.148;2023-02-01T07:35:59;4.07;;;2.17;;
62580;SDS011;48640;48.770;9.148;2023-02-01T07:38:27;4.97;;;2.78;;
62580;SDS011;48640;48.770;9.148;2023-02-01T07:40:56;4.85;;;2.20;;
62580;SDS011;48640;48.770;9.148;2023-02-01T07:43:24;4.57;;;2.38;;
62580;SDS011;48640;48.770;9.148;2023-02-01T07:45:51;3.67;;;2.10;;
62580;SDS011;48640;48.770;9.148;2023-02-01T07:48:18;6.05;;;1.88;;
62580;SDS011;48640;48.770;9.148;2023-02-01T07:50:47;3.05;;;1.85;;
62580;SDS011;48640;48.770;9.148;2023-02-01T07:53:14;4.35;;;2.05;;
62580;SDS011;48640;48.770;9.148;2023-02-01T07:55:40;4.72;;;2.40;;
62580;SDS011;48640;48.770;9.148;2023-02-01T07:58:07;4.88;;;1.92;;
62580;SDS011;48640;48.770;9.148;2023-02-01T08:00:34;5.75;;;2.00;;
62580;SDS011;48640;48.770;9.148;2023-02-01T08:03:18;5.15;;;2.17;;
62580;SDS011;48640;48.770;9.148;2023-02-01T08:05:46;3.88;;;2.38;;
62580;SDS011;48640;48.770;9.148;2023-02-01T08:08:13;6.25;;;2.00;;
62580;SDS011;48640;48.770;9.148;2023-02-01T08:10:40;5.97;;;1.85;;
62580;SDS011;48640;48.770;9.148;2023-02-01T08:13:07;6.78;;;2.22;;
62580;SDS011;48640;48.770;9.148;2023-02-01T08:15:34;6.00;;;2.38;;
62580;SDS011;48640;48.770;9.148;2023-02-01T08:18:01;8.02;;;2.28;;
62580;SDS011;48640;48.770;9.148;2023-02-01T08:20:28;4.78;;;2.53;;
62580;SDS011;48640;48.770;9.148;2023-02-01T08:22:56;6.43;;;2.35;;
62580;SDS011;48640;48.770;9.148;2023-02-01T08:25:23;7.40;;;2.60;;
62580;SDS011;48640;48.770;9.148;2023-02-01T08:27:50;5.47;;;2.72;;
62580;SDS011;48640;48.770;9.148;2023-02-01T08:30:18;6.07;;;2.58;;
62580;SDS011;48640;48.770;9.148;2023-02-01T08:32:45;7.88;;;2.30;;
62580;SDS011;48640;48.770;9.148;2023-02-01T08:35:12;8.63;;;3.20;;
62580;SDS011;48640;48.770;9.148;2023-02-01T08:37:38;6.97;;;2.30;;
62580;SDS011;48640;48.770;9.148;2023-02-01T08:40:07;9.27;;;2.70;;
62580;SDS011;48640;48.770;9.148;2023-02-01T08:42:35;7.97;;;2.42;;
62580;SDS011;48640;48.770;9.148;2023-02-01T08:45:17;7.15;;;2.72;;
62580;SDS011;48640;48.770;9.148;2023-02-01T08:47:44;7.93;;;3.30;;
62580;SDS011;48640;48.770;9.148;2023-02-01T08:50:12;4.28;;;2.30;;
62580;SDS011;48640;48.770;9.148;2023-02-01T08:52:39;11.75;;;3.10;;
62580;SDS011;48640;48.770;9.148;2023-02-01T08:55:08;10.20;;;2.50;;
62580;SDS011;48640;48.770;9.148;2023-02-01T08:57:35;4.35;;;1.98;;
62580;SDS011;48640;48.770;9.148;2023-02-01T09:00:03;7.15;;;2.70;;
62580;SDS011;48640;48.770;9.148;2023-02-01T09:02:31;7.70;;;2.25;;
62580;SDS011;48640;48.770;9.148;2023-02-01T09:04:58;9.55;;;2.85;;
62580;SDS011;48640;48.770;9.148;2023-02-01T09:07:25;6.53;;;2.15;;
62580;SDS011;48640;48.770;9.148;2023-02-01T09:09:51;5.72;;;2.63;;
62580;SDS011;48640;48.770;9.148;2023-02-01T09:12:20;8.25;;;2.10;;
62580;SDS011;48640;48.770;9.148;2023-02-01T09:14:47;7.53;;;2.30;;
62580;SDS011;48640;48.770;9.148;2023-02-01T09:17:14;8.52;;;2.30;;
62580;SDS011;48640;48.770;9.148;2023-02-01T09:19:41;5.80;;;2.38;;
62580;SDS011;48640;48.770;9.148;2023-02-01T09:22:08;7.50;;;2.70;;
62580;SDS011;48640;48.770;9.148;2023-02-01T09:24:34;9.40;;;2.80;;
62580;SDS011;48640;48.770;9.148;2023-02-01T09:27:01;6.13;;;2.17;;
62580;SDS011;48640;48.770;9.148;2023-02-01T09:29:29;8.70;;;1.90;;
62580;SDS011;48640;48.770;9.148;2023-02-01T09:31:56;8.52;;;2.40;;
62580;SDS011;48640;48.770;9.148;2023-02-01T09:34:23;6.30;;;2.30;;
62580;SDS011;48640;48.770;9.148;2023-02-01T09:36:50;10.25;;;2.72;;
62580;SDS011;48640;48.770;9.148;2023-02-01T09:39:17;12.52;;;3.05;;
62580;SDS011;48640;48.770;9.148;2023-02-01T09:41:54;9.40;;;2.22;;
62580;SDS011;48640;48.770;9.148;2023-02-01T09:44:34;7.68;;;2.30;;
62580;SDS011;48640;48.770;9.148;2023-02-01T09:47:11;5.25;;;2.58;;
62580;SDS011;48640;48.770;9.148;2023-02-01T09:49:40;9.55;;;2.40;;
62580;SDS011;48640;48.770;9.148;2023-02-01T09:52:13;8.07;;;2.38;;
62580;SDS011;48640;48.770;9.148;2023-02-01T09:54:42;10.38;;;2.35;;
62580;SDS011;48640;48.770;9.148;2023-02-01T09:57:14;12.88;;;3.00;;
62580;SDS011;48640;48.770;9.148;2023-02-01T09:59:47;11.75;;;3.10;;
62580;SDS011;48640;48.770;9.148;2023-02-01T10:02:20;7.97;;;2.42;;
62580;SDS011;48640;48.770;9.148;2023-02-01T10:04:49;6.70;;;2.47;;
62580;SDS011;48640;48.770;9.148;2023-02-01T10:07:22;15.10;;;2.75;;
62580;SDS011;48640;48.770;9.148;2023-02-01T10:09:58;10.88;;;2.47;;
62580;SDS011;48640;48.770;9.148;2023-02-01T10:12:37;13.13;;;2.90;;
62580;SDS011;48640;48.770;9.148;2023-02-01T10:15:24;12.80;;;3.80;;
62580;SDS011;48640;48.770;9.148;2023-02-01T10:18:07;9.88;;;2.53;;
62580;SDS011;48640;48.770;9.148;2023-02-01T10:20:50;9.60;;;2.80;;
62580;SDS011;48640;48.770;9.148;2023-02-01T10:23:29;9.65;;;2.28;;
62580;SDS011;48640;48.770;9.148;2023-02-01T10:26:08;10.25;;;2.70;;
62580;SDS011;48640;48.770;9.148;2023-02-01T10:28:44;10.00;;;2.53;;
62580;SDS011;48640;48.770;9.148;2023-02-01T10:31:16;5.93;;;1.90;;
62580;SDS011;48640;48.770;9.148;2023-02-01T10:33:45;9.52;;;2.40;;
62580;SDS011;48640;48.770;9.148;2023-02-01T10:36:15;10.68;;;2.80;;
62580;SDS011;48640;48.770;9.148;2023-02-01T10:38:47;6.65;;;2.60;;
62580;SDS011;48640;48.770;9.148;2023-02-01T10:41:15;15.15;;;2.35;;
62580;SDS011;48640;48.770;9.148;2023-02-01T10:43:44;11.43;;;2.30;;
62580;SDS011;48640;48.770;9.148;2023-02-01T10:46:15;12.25;;;3.40;;
62580;SDS011;48640;48.770;9.148;2023-02-01T10:48:42;13.55;;;2.70;;
62580;SDS011;48640;48.770;9.148;2023-02-01T10:51:12;11.82;;;2.95;;
62580;SDS011;48640;48.770;9.148;2023-02-01T10:53:47;12.63;;;2.83;;
62580;SDS011;48640;48.770;9.148;2023-02-01T10:56:22;8.50;;;2.10;;
62580;SDS011;48640;48.770;9.148;2023-02-01T10:58:50;9.98;;;2.50;;
62580;SDS011;48640;48.770;9.148;2023-02-01T11:01:20;8.82;;;2.00;;
62580;SDS011;48640;48.770;9.148;2023-02-01T11:03:53;11.35;;;2.17;;
62580;SDS011;48640;48.770;9.148;2023-02-01T11:06:24;8.63;;;2.42;;
62580;SDS011;48640;48.770;9.148;2023-02-01T11:08:54;6.93;;;1.90;;
62580;SDS011;48640;48.770;9.148;2023-02-01T11:11:23;6.93;;;2.20;;
62580;SDS011;48640;48.770;9.148;2023-02-01T11:13:54;12.80;;;2.70;;
62580;SDS011;48640;48.770;9.148;2023-02-01T11:16:30;12.07;;;2.17;;
62580;SDS011;48640;48.770;9.148;2023-02-01T11:19:00;11.02;;;2.97;;
62580;SDS011;48640;48.770;9.148;2023-02-01T11:21:27;12.13;;;3.03;;
62580;SDS011;48640;48.770;9.148;2023-02-01T11:23:54;10.50;;;2.80;;
62580;SDS011;48640;48.770;9.148;2023-02-01T11:26:22;7.30;;;2.38;;
62580;SDS011;48640;48.770;9.148;2023-02-01T11:28:52;12.77;;;2.70;;
62580;SDS011;48640;48.770;9.148;2023-02-01T11:31:22;15.23;;;3.35;;
62580;SDS011;48640;48.770;9.148;2023-02-01T11:33:52;10.98;;;2.50;;
62580;SDS011;48640;48.770;9.148;2023-02-01T11:36:23;6.85;;;2.05;;
62580;SDS011;48640;48.770;9.148;2023-02-01T11:39:07;9.02;;;2.55;;
62580;SDS011;48640;48.770;9.148;2023-02-01T11:41:40;7.30;;;2.10;;
62580;SDS011;48640;48.770;9.148;2023-02-01T11:44:19;9.82;;;2.47;;
62580;SDS011;48640;48.770;9.148;2023-02-01T11:46:47;11.25;;;2.90;;
62580;SDS011;48640;48.770;9.148;2023-02-01T11:49:20;11.52;;;2.60;;
62580;SDS011;48640;48.770;9.148;2023-02-01T11:51:54;10.50;;;2.40;;
62580;SDS011;48640;48.770;9.148;2023-02-01T11:54:39;8.82;;;2.20;;
62580;SDS011;48640;48.770;9.148;2023-02-01T11:57:24;11.80;;;2.25;;
62580;SDS011;48640;48.770;9.148;2023-02-01T12:00:06;8.07;;;2.83;;
62580;SDS011;48640;48.770;9.148;2023-02-01T12:02:51;6.53;;;2.55;;
62580;SDS011;48640;48.770;9.148;2023-02-01T12:05:33;8.88;;;2.40;;
62580;SDS011;48640;48.770;9.148;2023-02-01T12:11:03;6.35;;;2.10;;
62580;SDS011;48640;48.770;9.148;2023-02-01T12:13:52;9.93;;;2.22;;
62580;SDS011;48640;48.770;9.148;2023-02-01T12:16:28;6.38;;;2.00;;
62580;SDS011;48640;48.770;9.148;2023-02-01T12:19:09;10.48;;;2.35;;
62580;SDS011;48640;48.770;9.148;2023-02-01T12:21:48;6.80;;;2.20;;
62580;SDS011;48640;48.770;9.148;2023-02-01T12:24:29;10.23;;;2.97;;
62580;SDS011;48640;48.770;9.148;2023-02-01T12:27:20;7.07;;;2.53;;
62580;SDS011;48640;48.770;9.148;2023-02-01T12:30:10;10.15;;;2.63;;
62580;SDS011;48640;48.770;9.148;2023-02-01T12:33:02;11.43;;;2.92;;
62580;SDS011;48640;48.770;9.148;2023-02-01T12:35:42;9.60;;;3.08;;
62580;SDS011;48640;48.770;9.148;2023-02-01T12:38:30;9.07;;;2.10;;
62580;SDS011;48640;48.770;9.148;2023-02-01T12:41:15;8.98;;;2.30;;
62580;SDS011;48640;48.770;9.148;2023-02-01T12:43:56;9.25;;;2.47;;
62580;SDS011;48640;48.770;9.148;2023-02-01T12:46:27;8.77;;;2.67;;
62580;SDS011;48640;48.770;9.148;2023-02-01T12:48:58;8.38;;;2.53;;
62580;SDS011;48640;48.770;9.148;2023-02-01T12:51:31;12.15;;;2.85;;
62580;SDS011;48640;48.770;9.148;2023-02-01T12:54:06;7.38;;;2.08;;
62580;SDS011;48640;48.770;9.148;2023-02-01T12:56:41;8.55;;;2.13;;
62580;SDS011;48640;48.770;9.148;2023-02-01T12:59:14;9.35;;;2.50;;
62580;SDS011;48640;48.770;9.148;2023-02-01T13:01:49;10.00;;;2.33;;
62580;SDS011;48640;48.770;9.148;2023-02-01T13:04:24;8.82;;;1.85;;
62580;SDS011;48640;48.770;9.148;2023-02-01T13:06:53;12.27;;;3.63;;
62580;SDS011;48640;48.770;9.148;2023-02-01T13:09:37;7.35;;;2.20;;
62580;SDS011;48640;48.770;9.148;2023-02-01T13:12:18;7.20;;;2.08;;
62580;SDS011;48640;48.770;9.148;2023-02-01T13:14:52;8.05;;;2.22;;
62580;SDS011;48640;48.770;9.148;2023-02-01T13:19:53;11.23;;;2.17;;
62580;SDS011;48640;48.770;9.148;2023-02-01T13:22:25;10.82;;;3.10;;
62580;SDS011;48640;48.770;9.148;2023-02-01T13:24:58;10.70;;;3.08;;
62580;SDS011;48640;48.770;9.148;2023-02-01T13:27:28;7.50;;;2.25;;
62580;SDS011;48640;48.770;9.148;2023-02-01T13:29:56;7.60;;;2.20;;
62580;SDS011;48640;48.770;9.148;2023-02-01T13:32:37;7.45;;;3.05;;
62580;SDS011;48640;48.770;9.148;2023-02-01T13:35:24;9.77;;;2.10;;
62580;SDS011;48640;48.770;9.148;2023-02-01T13:41:02;7.70;;;2.72;;
62580;SDS011;48640;48.770;9.148;2023-02-01T13:43:38;8.63;;;2.92;;
62580;SDS011;48640;48.770;9.148;2023-02-01T13:46:09;7.07;;;2.13;;
62580;SDS011;48640;48.770;9.148;2023-02-01T13:48:40;9.65;;;2.05;;
62580;SDS011;48640;48.770;9.148;2023-02-01T13:51:12;8.50;;;2.28;;
62580;SDS011;48640;48.770;9.148;2023-02-01T13:53:44;10.18;;;3.05;;
62580;SDS011;48640;48.770;9.148;2023-02-01T13:56:15;10.65;;;3.60;;
62580;SDS011;48640;48.770;9.148;2023-02-01T13:58:44;8.07;;;2.40;;
62580;SDS011;48640;48.770;9.148;2023-02-01T14:01:31;10.23;;;2.08;;
62580;SDS011;48640;48.770;9.148;2023-02-01T14:04:02;9.75;;;2.97;;
62580;SDS011;48640;48.770;9.148;2023-02-01T14:06:43;11.70;;;2.47;;
62580;SDS011;48640;48.770;9.148;2023-02-01T14:09:15;7.65;;;2.55;;
62580;SDS011;48640;48.770;9.148;2023-02-01T14:11:47;9.32;;;2.70;;
62580;SDS011;48640;48.770;9.148;2023-02-01T14:23:17;9.02;;;2.20;;
62580;SDS011;48640;48.770;9.148;2023-02-01T14:25:47;9.80;;;2.30;;
62580;SDS011;48640;48.770;9.148;2023-02-01T14:28:29;7.53;;;2.42;;
62580;SDS011;48640;48.770;9.148;2023-02-01T14:30:56;8.27;;;2.60;;
62580;SDS011;48640;48.770;9.148;2023-02-01T14:33:25;11.07;;;2.75;;
62580;SDS011;48640;48.770;9.148;2023-02-01T14:36:06;8.07;;;1.95;;
62580;SDS011;48640;48.770;9.148;2023-02-01T14:38:37;10.48;;;2.53;;
62580;SDS011;48640;48.770;9.148;2023-02-01T14:47:05;7.60;;;2.53;;
62580;SDS011;48640;48.770;9.148;2023-02-01T14:49:36;11.45;;;2.13;;
62580;SDS011;48640;48.770;9.148;2023-02-01T14:52:06;7.65;;;2.35;;
62580;SDS011;48640;48.770;9.148;2023-02-01T14:54:37;6.10;;;2.00;;
62580;SDS011;48640;48.770;9.148;2023-02-01T14:57:10;6.47;;;1.80;;
62580;SDS011;48640;48.770;9.148;2023-02-01T14:59:42;8.35;;;1.98;;
62580;SDS011;48640;48.770;9.148;2023-02-01T15:02:17;6.32;;;1.65;;
62580;SDS011;48640;48.770;9.148;2023-02-01T15:04:47;9.40;;;2.45;;
62580;SDS011;48640;48.770;9.148;2023-02-01T15:07:21;12.80;;;2.83;;
62580;SDS011;48640;48.770;9.148;2023-02-01T15:09:49;10.93;;;2.42;;
62580;SDS011;48640;48.770;9.148;2023-02-01T15:12:18;8.60;;;2.47;;
62580;SDS011;48640;48.770;9.148;2023-02-01T15:15:10;8.40;;;2.80;;
62580;SDS011;48640;48.770;9.148;2023-02-01T15:17:39;9.63;;;3.22;;
62580;SDS011;48640;48.770;9.148;2023-02-01T15:20:12;9.77;;;2.50;;
62580;SDS011;48640;48.770;9.148;2023-02-01T15:22:40;6.60;;;3.15;;
62580;SDS011;48640;48.770;9.148;2023-02-01T15:25:17;7.22;;;2.33;;
62580;SDS011;48640;48.770;9.148;2023-02-01T15:27:45;11.90;;;2.30;;
62580;SDS011;48640;48.770;9.148;2023-02-01T15:30:17;9.43;;;2.70;;
62580;SDS011;48640;48.770;9.148;2023-02-01T15:32:46;6.60;;;2.03;;
62580;SDS011;48640;48.770;9.148;2023-02-01T15:38:21;6.18;;;2.35;;